createdAt,value
2023-04-29T00:01:28.327Z,25.13
2023-04-29T00:03:55.171Z,24.73
2023-04-29T00:06:22.642Z,25.07
2023-04-29T00:08:49.320Z,26.00
2023-04-29T00:11:16.346Z,26.03
2023-04-29T00:13:43.059Z,26.07
2023-04-29T00:16:12.365Z,24.80
2023-04-29T00:18:38.928Z,25.57
2023-04-29T00:21:08.633Z,25.47
2023-04-29T00:23:35.513Z,28.80
2023-04-29T00:26:02.066Z,27.20
2023-04-29T00:28:28.924Z,27.97
2023-04-29T00:30:56.358Z,29.40
2023-04-29T00:33:25.422Z,30.63
2023-04-29T00:35:52.215Z,32.13
2023-04-29T00:38:18.792Z,33.17
2023-04-29T00:40:45.513Z,32.00
2023-04-29T00:43:12.063Z,35.90
2023-04-29T00:45:38.682Z,34.87
2023-04-29T00:48:05.270Z,36.80
2023-04-29T00:50:31.838Z,38.80
2023-04-29T00:52:58.345Z,38.40
2023-04-29T00:55:26.562Z,38.80
2023-04-29T00:57:53.581Z,39.50
2023-04-29T01:00:20.553Z,39.90
2023-04-29T01:02:47.408Z,39.27
2023-04-29T01:05:15.576Z,39.40
2023-04-29T01:07:47.112Z,40.47
2023-04-29T01:10:34.287Z,39.50
2023-04-29T01:13:14.410Z,39.87
2023-04-29T01:15:44.072Z,40.70
2023-04-29T01:18:10.562Z,40.83
2023-04-29T01:20:38.097Z,41.13
2023-04-29T01:23:04.655Z,40.13
2023-04-29T01:25:31.174Z,38.03
2023-04-29T01:28:04.101Z,38.97
2023-04-29T01:30:33.803Z,36.90
2023-04-29T01:33:00.261Z,35.80
2023-04-29T01:35:34.259Z,37.33
2023-04-29T01:38:17.072Z,36.87
2023-04-29T01:41:10.324Z,38.13
2023-04-29T01:43:37.969Z,36.07
2023-04-29T01:46:06.759Z,39.13
2023-04-29T01:48:33.400Z,37.30
2023-04-29T01:51:02.420Z,38.93
2023-04-29T01:53:28.956Z,39.07
2023-04-29T01:55:55.413Z,39.27
2023-04-29T01:58:21.919Z,39.90
2023-04-29T02:00:48.452Z,39.67
2023-04-29T02:03:15.098Z,39.37
2023-04-29T02:05:41.684Z,39.90
2023-04-29T02:08:09.661Z,40.33
2023-04-29T02:10:36.294Z,40.93
2023-04-29T02:13:03.187Z,39.13
2023-04-29T02:15:29.776Z,40.47
2023-04-29T02:17:56.368Z,36.70
2023-04-29T02:20:22.953Z,34.70
2023-04-29T02:22:49.639Z,33.37
2023-04-29T02:25:16.125Z,31.10
2023-04-29T02:27:42.627Z,29.73
2023-04-29T02:30:09.511Z,29.17
2023-04-29T02:32:36.314Z,29.70
2023-04-29T02:35:02.901Z,29.03
2023-04-29T02:37:29.373Z,29.10
2023-04-29T02:39:56.000Z,26.80
2023-04-29T02:42:22.597Z,26.80
2023-04-29T02:44:49.145Z,26.20
2023-04-29T02:47:15.715Z,24.60
2023-04-29T02:49:42.197Z,25.10
2023-04-29T02:52:08.706Z,24.97
2023-04-29T02:54:35.425Z,23.80
2023-04-29T02:57:04.171Z,24.33
2023-04-29T02:59:30.716Z,25.27
2023-04-29T03:01:57.458Z,26.23
2023-04-29T03:04:24.218Z,24.17
2023-04-29T03:06:51.665Z,23.53
2023-04-29T03:09:18.148Z,24.33
2023-04-29T03:11:47.114Z,24.03
2023-04-29T03:14:13.633Z,25.90
2023-04-29T03:16:40.233Z,23.93
2023-04-29T03:19:06.872Z,24.37
2023-04-29T03:21:33.901Z,22.73
2023-04-29T03:24:00.382Z,22.77
2023-04-29T03:26:26.887Z,22.27
2023-04-29T03:28:53.741Z,21.73
2023-04-29T03:31:21.508Z,22.53
2023-04-29T03:33:48.111Z,21.63
2023-04-29T03:36:15.495Z,21.53
2023-04-29T03:38:42.000Z,21.80
2023-04-29T03:41:08.623Z,21.00
2023-04-29T03:43:35.200Z,20.40
2023-04-29T03:46:01.763Z,21.63
2023-04-29T03:48:28.343Z,21.47
2023-04-29T03:50:54.846Z,21.63
2023-04-29T03:53:22.406Z,20.40
2023-04-29T03:55:49.015Z,19.53
2023-04-29T03:58:15.502Z,19.90
2023-04-29T04:00:42.406Z,18.70
2023-04-29T04:03:09.341Z,18.17
2023-04-29T04:05:35.924Z,17.77
2023-04-29T04:08:02.438Z,18.67
2023-04-29T04:10:29.021Z,17.83
2023-04-29T04:12:56.049Z,18.17
2023-04-29T04:15:22.838Z,17.73
2023-04-29T04:17:49.481Z,17.90
2023-04-29T04:20:19.629Z,18.70
2023-04-29T04:22:46.185Z,18.30
2023-04-29T04:25:12.757Z,17.77
2023-04-29T04:27:39.278Z,16.80
2023-04-29T04:30:06.217Z,18.97
2023-04-29T04:32:32.811Z,19.67
2023-04-29T04:34:59.780Z,18.07
2023-04-29T04:37:26.264Z,18.00
2023-04-29T04:39:53.191Z,18.60
2023-04-29T04:42:22.803Z,18.53
2023-04-29T04:44:49.295Z,19.27
2023-04-29T04:47:16.130Z,18.77
2023-04-29T04:49:42.666Z,19.33
2023-04-29T04:52:10.111Z,18.03
2023-04-29T04:54:36.599Z,18.20
2023-04-29T04:57:06.286Z,18.73
2023-04-29T04:59:33.863Z,18.33
2023-04-29T05:02:00.521Z,17.83
2023-04-29T05:04:27.543Z,17.93
2023-04-29T05:06:54.136Z,17.53
2023-04-29T05:09:20.755Z,17.77
2023-04-29T05:11:47.309Z,17.97
2023-04-29T05:14:17.026Z,19.07
2023-04-29T05:16:45.146Z,17.33
2023-04-29T05:19:11.759Z,16.73
2023-04-29T05:21:38.267Z,17.87
2023-04-29T05:24:05.189Z,17.57
2023-04-29T05:26:31.699Z,17.00
2023-04-29T05:28:58.215Z,18.07
2023-04-29T05:31:24.737Z,17.03
2023-04-29T05:33:51.276Z,16.70
2023-04-29T05:36:17.817Z,17.50
2023-04-29T05:38:46.576Z,16.47
2023-04-29T05:41:14.374Z,17.40
2023-04-29T05:43:40.906Z,17.80
2023-04-29T05:46:07.543Z,17.13
2023-04-29T05:48:34.119Z,17.90
2023-04-29T05:51:00.911Z,17.27
2023-04-29T05:53:27.416Z,17.30
2023-04-29T05:55:54.104Z,17.63
2023-04-29T05:58:20.657Z,17.77
2023-04-29T06:00:49.846Z,17.40
2023-04-29T06:03:17.110Z,17.13
2023-04-29T06:05:44.148Z,17.37
2023-04-29T06:08:10.962Z,16.93
2023-04-29T06:10:38.160Z,16.67
2023-04-29T06:13:04.639Z,16.37
2023-04-29T06:15:31.545Z,17.07
2023-04-29T06:17:58.075Z,16.77
2023-04-29T06:20:24.634Z,16.47
2023-04-29T06:22:51.178Z,17.63
2023-04-29T06:25:17.802Z,15.67
2023-04-29T06:27:44.270Z,16.40
2023-04-29T06:30:11.718Z,16.20
2023-04-29T06:32:39.192Z,16.07
2023-04-29T06:35:05.955Z,16.53
2023-04-29T06:37:32.613Z,15.63
2023-04-29T06:39:59.098Z,15.70
2023-04-29T06:42:26.720Z,15.37
2023-04-29T06:44:53.215Z,16.10
2023-04-29T06:47:20.338Z,15.57
2023-04-29T06:49:47.338Z,15.67
2023-04-29T06:52:14.084Z,16.20
2023-04-29T06:54:40.679Z,16.43
2023-04-29T06:57:07.242Z,15.93
2023-04-29T06:59:33.907Z,16.93
2023-04-29T07:02:00.591Z,15.63
2023-04-29T07:04:27.157Z,17.03
2023-04-29T07:06:54.451Z,16.10
2023-04-29T07:09:21.026Z,17.10
2023-04-29T07:11:47.544Z,15.90
2023-04-29T07:14:14.119Z,16.97
2023-04-29T07:16:40.772Z,15.93
2023-04-29T07:19:07.372Z,15.73
2023-04-29T07:21:33.914Z,16.53
2023-04-29T07:24:02.590Z,16.70
2023-04-29T07:26:29.088Z,15.97
2023-04-29T07:28:55.815Z,15.03
2023-04-29T07:31:22.725Z,15.40
2023-04-29T07:33:49.554Z,15.67
2023-04-29T07:36:16.172Z,15.63
2023-04-29T07:38:42.750Z,16.00
2023-04-29T07:41:09.292Z,16.67
2023-04-29T07:43:36.993Z,16.33
2023-04-29T07:46:03.591Z,16.57
2023-04-29T07:48:30.250Z,17.67
2023-04-29T07:50:57.412Z,17.53
2023-04-29T07:53:23.984Z,17.23
2023-04-29T07:55:51.043Z,19.93
2023-04-29T07:58:17.525Z,19.03
2023-04-29T08:00:44.050Z,19.67
2023-04-29T08:03:10.731Z,19.53
2023-04-29T08:05:37.546Z,20.47
2023-04-29T08:08:04.428Z,19.83
2023-04-29T08:10:31.268Z,19.93
2023-04-29T08:12:58.256Z,22.43
2023-04-29T08:15:24.891Z,21.07
2023-04-29T08:17:51.406Z,21.40
2023-04-29T08:20:18.054Z,19.10
2023-04-29T08:22:44.596Z,20.10
2023-04-29T08:25:11.701Z,19.67
2023-04-29T08:27:38.224Z,20.70
2023-04-29T08:30:04.983Z,19.97
2023-04-29T08:32:32.339Z,19.93
2023-04-29T08:34:59.259Z,21.67
2023-04-29T08:37:26.105Z,21.83
2023-04-29T08:39:52.587Z,21.20
2023-04-29T08:42:21.134Z,20.67
2023-04-29T08:44:48.281Z,20.27
2023-04-29T08:47:16.500Z,22.40
2023-04-29T08:49:43.057Z,21.43
2023-04-29T08:52:09.680Z,21.17
2023-04-29T08:54:36.421Z,19.70
2023-04-29T08:57:03.995Z,20.87
2023-04-29T08:59:30.649Z,21.93
2023-04-29T09:01:57.548Z,22.73
2023-04-29T09:04:27.220Z,22.10
2023-04-29T09:06:56.509Z,21.77
2023-04-29T09:09:24.654Z,21.50
2023-04-29T09:11:51.345Z,20.23
2023-04-29T09:14:19.105Z,20.23
2023-04-29T09:16:48.838Z,20.27
2023-04-29T09:19:32.206Z,19.90
2023-04-29T09:21:59.361Z,20.83
2023-04-29T09:24:29.853Z,20.53
2023-04-29T09:26:56.886Z,20.73
2023-04-29T09:29:24.257Z,20.90
2023-04-29T09:31:58.975Z,20.23
2023-04-29T09:34:32.752Z,19.37
2023-04-29T09:36:59.480Z,19.63
2023-04-29T09:39:26.452Z,18.77
2023-04-29T09:41:52.964Z,20.03
2023-04-29T09:44:23.601Z,19.37
2023-04-29T09:46:57.640Z,20.27
2023-04-29T09:49:25.235Z,19.27
2023-04-29T09:51:56.017Z,18.70
2023-04-29T09:54:23.694Z,19.27
2023-04-29T09:56:52.297Z,18.93
2023-04-29T09:59:21.955Z,18.40
2023-04-29T10:01:50.023Z,18.43
2023-04-29T10:04:17.693Z,19.03
2023-04-29T10:06:45.175Z,20.07
2023-04-29T10:09:15.717Z,18.83
2023-04-29T10:11:43.791Z,18.03
2023-04-29T10:14:15.459Z,18.33
2023-04-29T10:16:49.212Z,18.77
2023-04-29T10:19:19.763Z,18.27
2023-04-29T10:21:49.940Z,18.50
2023-04-29T10:24:18.389Z,19.20
2023-04-29T10:26:45.734Z,18.60
2023-04-29T10:29:14.107Z,18.10
2023-04-29T10:31:41.507Z,18.50
2023-04-29T10:34:08.179Z,18.27
2023-04-29T10:36:35.048Z,18.37
2023-04-29T10:39:04.420Z,19.00
2023-04-29T10:41:34.601Z,18.43
2023-04-29T10:44:03.612Z,18.73
2023-04-29T10:46:30.711Z,17.83
2023-04-29T10:49:01.274Z,17.87
2023-04-29T10:51:32.336Z,18.87
2023-04-29T10:53:59.918Z,17.87
2023-04-29T10:56:37.379Z,17.23
2023-04-29T10:59:04.084Z,17.03
2023-04-29T11:01:51.329Z,16.57
2023-04-29T11:04:21.676Z,16.30
2023-04-29T11:06:52.515Z,17.97
2023-04-29T11:09:22.402Z,16.97
2023-04-29T11:11:49.376Z,17.73
2023-04-29T11:14:16.758Z,19.17
2023-04-29T11:16:52.358Z,16.67
2023-04-29T11:19:20.609Z,17.70
2023-04-29T11:21:47.469Z,18.60
2023-04-29T11:24:18.787Z,18.40
2023-04-29T11:26:46.608Z,18.90
2023-04-29T11:29:18.476Z,18.90
2023-04-29T11:31:45.073Z,18.43
2023-04-29T11:34:14.443Z,19.60
2023-04-29T11:36:40.991Z,19.60
2023-04-29T11:39:08.401Z,18.53
2023-04-29T11:41:36.281Z,17.90
2023-04-29T11:44:05.097Z,18.50
2023-04-29T11:46:32.076Z,18.63
2023-04-29T11:49:02.021Z,17.03
2023-04-29T11:51:28.809Z,16.97
2023-04-29T11:53:58.145Z,17.27
2023-04-29T11:56:25.692Z,18.67
2023-04-29T11:58:57.108Z,18.20
2023-04-29T12:01:25.319Z,19.33
2023-04-29T12:03:52.170Z,21.03
2023-04-29T12:06:18.836Z,29.23
2023-04-29T12:08:47.101Z,20.57
2023-04-29T12:11:14.139Z,19.37
2023-04-29T12:13:41.129Z,18.30
2023-04-29T12:16:07.860Z,16.83
2023-04-29T12:18:34.919Z,17.57
2023-04-29T12:21:01.445Z,16.90
2023-04-29T12:23:28.202Z,15.80
2023-04-29T12:26:01.078Z,15.43
2023-04-29T12:28:27.675Z,13.87
2023-04-29T12:30:54.994Z,12.40
2023-04-29T12:33:23.179Z,10.93
2023-04-29T12:35:50.987Z,10.33
2023-04-29T12:38:27.785Z,11.93
2023-04-29T12:40:59.263Z,11.70
2023-04-29T12:43:26.354Z,10.60
2023-04-29T12:45:54.531Z,11.90
2023-04-29T12:48:29.166Z,10.53
2023-04-29T12:50:58.655Z,9.67
2023-04-29T12:53:25.430Z,9.73
2023-04-29T12:55:52.454Z,10.60
2023-04-29T12:58:19.311Z,10.23
2023-04-29T13:00:46.162Z,10.63
2023-04-29T13:03:13.150Z,9.90
2023-04-29T13:05:40.852Z,10.33
2023-04-29T13:08:08.442Z,9.90
2023-04-29T13:10:35.689Z,9.57
2023-04-29T13:13:02.717Z,10.60
2023-04-29T13:15:29.289Z,10.10
2023-04-29T13:17:55.889Z,9.87
2023-04-29T13:20:22.481Z,11.03
2023-04-29T13:22:49.043Z,11.13
2023-04-29T13:25:16.529Z,11.33
2023-04-29T13:27:44.171Z,9.70
2023-04-29T13:30:11.138Z,11.00
2023-04-29T13:32:44.908Z,10.83
2023-04-29T13:35:15.860Z,10.40
2023-04-29T13:37:42.380Z,11.67
2023-04-29T13:40:09.212Z,10.00
2023-04-29T13:42:45.246Z,10.80
2023-04-29T13:45:16.771Z,10.83
2023-04-29T13:48:03.706Z,10.13
2023-04-29T13:53:35.857Z,9.40
2023-04-29T14:01:11.330Z,9.00
2023-04-29T14:03:35.625Z,8.10
2023-04-29T14:06:02.603Z,8.43
2023-04-29T14:08:29.179Z,8.77
2023-04-29T14:10:55.655Z,8.70
2023-04-29T14:13:22.354Z,8.03
2023-04-29T14:15:48.935Z,8.70
2023-04-29T14:18:15.613Z,8.27
2023-04-29T14:20:42.113Z,8.07
2023-04-29T14:23:08.631Z,7.43
2023-04-29T14:25:35.137Z,7.40
2023-04-29T14:28:01.704Z,8.13
2023-04-29T14:30:28.265Z,7.93
2023-04-29T14:32:54.834Z,7.83
2023-04-29T14:35:21.375Z,7.97
2023-04-29T14:37:47.909Z,8.73
2023-04-29T14:40:14.394Z,9.07
2023-04-29T14:42:41.014Z,8.83
2023-04-29T14:45:10.593Z,8.77
2023-04-29T14:47:37.112Z,9.37
2023-04-29T14:50:04.494Z,9.67
2023-04-29T14:52:31.001Z,8.97
2023-04-29T14:54:57.690Z,9.20
2023-04-29T14:57:24.154Z,8.33
2023-04-29T14:59:50.833Z,8.70
2023-04-29T15:02:17.323Z,8.30
2023-04-29T15:04:46.165Z,8.60
2023-04-29T15:07:13.876Z,8.77
2023-04-29T15:09:42.899Z,7.97
2023-04-29T15:12:17.077Z,7.90
2023-04-29T15:14:43.598Z,8.70
2023-04-29T15:17:10.662Z,7.83
2023-04-29T15:19:37.450Z,7.87
2023-04-29T15:22:04.158Z,6.53
2023-04-29T15:24:31.208Z,7.90
2023-04-29T15:26:58.215Z,7.10
2023-04-29T15:29:24.812Z,7.67
2023-04-29T15:31:52.041Z,7.97
2023-04-29T15:34:18.655Z,6.80
2023-04-29T15:36:45.174Z,7.47
2023-04-29T15:39:12.369Z,6.47
2023-04-29T15:41:39.202Z,6.13
2023-04-29T15:44:05.827Z,5.67
2023-04-29T15:46:32.378Z,7.57
2023-04-29T15:48:59.064Z,7.40
2023-04-29T15:51:25.577Z,7.43
2023-04-29T15:53:52.176Z,8.20
2023-04-29T15:56:18.648Z,7.30
2023-04-29T15:58:45.146Z,8.13
2023-04-29T16:01:12.859Z,7.77
2023-04-29T16:03:39.418Z,7.87
2023-04-29T16:06:06.388Z,8.23
2023-04-29T16:08:32.905Z,8.03
2023-04-29T16:10:59.394Z,8.00
2023-04-29T16:13:25.879Z,7.83
2023-04-29T16:15:52.372Z,8.00
2023-04-29T16:18:19.402Z,7.10
2023-04-29T16:20:46.381Z,7.07
2023-04-29T16:23:12.871Z,7.03
2023-04-29T16:25:40.569Z,7.13
2023-04-29T16:28:07.154Z,6.80
2023-04-29T16:30:34.592Z,7.03
2023-04-29T16:33:01.214Z,8.00
2023-04-29T16:35:29.793Z,6.97
2023-04-29T16:37:56.490Z,7.13
2023-04-29T16:40:24.611Z,7.27
2023-04-29T16:42:57.731Z,7.30
2023-04-29T16:45:25.550Z,7.20
2023-04-29T16:47:52.291Z,6.70
2023-04-29T16:50:18.937Z,6.80
2023-04-29T16:52:47.546Z,6.47
2023-04-29T16:55:14.188Z,6.00
2023-04-29T16:57:40.739Z,6.20
2023-04-29T17:00:10.542Z,6.17
2023-04-29T17:02:37.711Z,6.67
2023-04-29T17:05:04.436Z,7.50
2023-04-29T17:07:31.595Z,6.33
2023-04-29T17:09:58.133Z,5.77
2023-04-29T17:12:24.667Z,6.57
2023-04-29T17:14:51.809Z,7.23
2023-04-29T17:17:18.902Z,6.40
2023-04-29T17:19:50.052Z,6.17
2023-04-29T17:22:19.997Z,6.70
2023-04-29T17:24:46.600Z,6.20
2023-04-29T17:27:13.420Z,6.40
2023-04-29T17:29:40.074Z,5.90
2023-04-29T17:32:15.364Z,6.50
2023-04-29T17:34:41.880Z,5.77
2023-04-29T17:37:08.423Z,6.80
2023-04-29T17:39:34.999Z,6.03
2023-04-29T17:42:01.541Z,6.17
2023-04-29T17:44:28.129Z,6.23
2023-04-29T17:46:57.423Z,6.50
2023-04-29T17:49:23.956Z,6.03
2023-04-29T17:51:50.507Z,6.37
2023-04-29T17:54:17.203Z,6.33
2023-04-29T17:56:43.770Z,6.23
2023-04-29T17:59:11.247Z,6.43
2023-04-29T18:01:37.904Z,5.53
2023-04-29T18:04:04.992Z,5.50
2023-04-29T18:06:40.887Z,5.23
2023-04-29T18:09:07.596Z,5.43
2023-04-29T18:11:34.146Z,5.47
2023-04-29T18:14:01.208Z,5.47
2023-04-29T18:16:27.977Z,5.63
2023-04-29T18:18:56.782Z,5.87
2023-04-29T18:21:24.238Z,5.57
2023-04-29T18:23:50.892Z,5.73
2023-04-29T18:26:17.676Z,5.03
2023-04-29T18:28:44.740Z,5.43
2023-04-29T18:31:14.002Z,5.33
2023-04-29T18:33:40.566Z,5.83
2023-04-29T18:36:07.114Z,5.90
2023-04-29T18:38:33.699Z,7.23
2023-04-29T18:41:00.249Z,5.80
2023-04-29T18:43:29.608Z,5.47
2023-04-29T18:45:57.302Z,6.33
2023-04-29T18:48:24.072Z,6.10
2023-04-29T18:50:54.542Z,5.97
2023-04-29T18:53:21.184Z,6.40
2023-04-29T18:55:47.764Z,5.97
2023-04-29T18:58:24.714Z,7.27
2023-04-29T19:00:51.350Z,5.90
2023-04-29T19:03:17.970Z,6.17
2023-04-29T19:05:44.920Z,5.90
2023-04-29T19:08:11.624Z,5.60
2023-04-29T19:10:38.170Z,6.27
2023-04-29T19:13:04.684Z,6.20
2023-04-29T19:15:32.267Z,6.63
2023-04-29T19:17:58.985Z,6.20
2023-04-29T19:20:25.946Z,5.67
2023-04-29T19:22:52.542Z,5.67
2023-04-29T19:25:19.228Z,6.30
2023-04-29T19:27:45.849Z,5.50
2023-04-29T19:30:13.226Z,5.67
2023-04-29T19:32:39.925Z,6.10
2023-04-29T19:35:06.757Z,6.33
2023-04-29T19:37:33.298Z,6.33
2023-04-29T19:39:59.794Z,5.87
2023-04-29T19:42:27.158Z,6.47
2023-04-29T19:44:53.661Z,6.37
2023-04-29T19:47:20.353Z,6.30
2023-04-29T19:49:47.461Z,6.00
2023-04-29T19:52:17.120Z,5.90
2023-04-29T19:54:43.617Z,6.20
2023-04-29T19:57:10.213Z,6.47
2023-04-29T19:59:36.699Z,5.67
2023-04-29T20:02:03.206Z,7.47
2023-04-29T20:04:30.115Z,6.50
2023-04-29T20:06:56.663Z,6.57
2023-04-29T20:09:23.170Z,6.07
2023-04-29T20:11:49.716Z,6.90
2023-04-29T20:14:16.226Z,6.77
2023-04-29T20:16:43.153Z,7.17
2023-04-29T20:19:09.718Z,6.80
2023-04-29T20:21:36.557Z,6.37
2023-04-29T20:24:03.205Z,7.03
2023-04-29T20:26:30.180Z,6.87
2023-04-29T20:28:56.666Z,7.07
2023-04-29T20:31:23.698Z,6.93
2023-04-29T20:33:50.205Z,7.60
2023-04-29T20:36:17.010Z,7.50
2023-04-29T20:38:43.930Z,7.23
2023-04-29T20:41:10.509Z,7.30
2023-04-29T20:43:37.087Z,7.97
2023-04-29T20:46:03.602Z,9.13
2023-04-29T20:48:30.156Z,8.80
2023-04-29T20:50:56.639Z,8.07
2023-04-29T20:53:23.132Z,7.93
2023-04-29T20:55:49.778Z,7.53
2023-04-29T20:58:16.645Z,6.87
2023-04-29T21:00:43.282Z,7.40
2023-04-29T21:03:10.049Z,6.53
2023-04-29T21:05:36.545Z,6.30
2023-04-29T21:08:03.069Z,6.20
2023-04-29T21:10:29.535Z,5.63
2023-04-29T21:12:56.069Z,5.63
2023-04-29T21:15:22.973Z,6.03
2023-04-29T21:20:31.978Z,5.13
2023-04-29T21:22:58.573Z,5.70
2023-04-29T21:25:25.029Z,5.63
2023-04-29T21:27:51.662Z,5.13
2023-04-29T21:30:18.155Z,5.20
2023-04-29T21:33:12.582Z,5.40
2023-04-29T21:35:42.158Z,5.23
2023-04-29T21:38:09.171Z,5.10
2023-04-29T21:40:39.780Z,5.33
2023-04-29T21:43:06.338Z,6.17
2023-04-29T21:45:32.880Z,5.13
2023-04-29T21:48:03.853Z,5.80
2023-04-29T21:50:30.439Z,4.90
2023-04-29T21:52:56.934Z,5.40
2023-04-29T21:55:23.692Z,5.00
2023-04-29T21:57:50.429Z,5.27
2023-04-29T22:00:33.070Z,5.43
2023-04-29T22:03:00.730Z,5.37
2023-04-29T22:05:27.387Z,5.17
2023-04-29T22:07:53.956Z,5.93
2023-04-29T22:10:23.908Z,5.17
2023-04-29T22:12:50.726Z,5.60
2023-04-29T22:15:28.307Z,5.70
2023-04-29T22:17:56.082Z,5.20
2023-04-29T22:20:23.045Z,5.83
2023-04-29T22:22:49.567Z,5.70
2023-04-29T22:25:16.044Z,5.57
2023-04-29T22:27:42.537Z,5.70
2023-04-29T22:30:09.532Z,5.43
2023-04-29T22:32:36.457Z,5.17
2023-04-29T22:35:03.167Z,5.23
2023-04-29T22:37:30.416Z,5.20
2023-04-29T22:39:57.221Z,5.30
2023-04-29T22:42:23.847Z,5.73
2023-04-29T22:44:52.991Z,5.27
2023-04-29T22:47:19.485Z,5.43
2023-04-29T22:49:46.583Z,5.17
2023-04-29T22:52:13.065Z,5.70
2023-04-29T22:54:39.673Z,5.57
2023-04-29T22:57:10.667Z,6.23
2023-04-29T22:59:37.249Z,5.90
2023-04-29T23:02:04.180Z,6.13
2023-04-29T23:04:32.499Z,6.17
2023-04-29T23:06:58.996Z,6.57
2023-04-29T23:09:25.501Z,6.60
2023-04-29T23:11:51.998Z,6.43
2023-04-29T23:14:21.312Z,6.43
2023-04-29T23:16:47.828Z,6.77
2023-04-29T23:19:14.304Z,7.07
2023-04-29T23:21:41.182Z,6.00
2023-04-29T23:24:07.699Z,7.23
2023-04-29T23:26:36.422Z,6.63
2023-04-29T23:29:02.924Z,7.00
2023-04-29T23:31:29.450Z,6.73
2023-04-29T23:33:56.063Z,6.60
2023-04-29T23:36:22.621Z,6.90
2023-04-29T23:38:49.213Z,6.40
2023-04-29T23:41:15.757Z,6.90
2023-04-29T23:43:42.327Z,7.47
2023-04-29T23:46:10.328Z,6.30
2023-04-29T23:48:36.948Z,6.93
2023-04-29T23:51:03.466Z,7.43
2023-04-29T23:53:30.000Z,6.73
2023-04-29T23:55:56.536Z,7.27
2023-04-29T23:58:23.074Z,7.40
